sensor_id;sensor_type;location;lat;lon;timestamp;P1;durP1;ratioP1;P2;durP2;ratioP2
21800;SDS011;11062;51.164;16.924;2023-02-18T00:00:53;75.38;;;48.03;;
21800;SDS011;11062;51.164;16.924;2023-02-18T00:03:21;67.15;;;41.78;;
21800;SDS011;11062;51.164;16.924;2023-02-18T00:05:51;54.63;;;22.90;;
21800;SDS011;11062;51.164;16.924;2023-02-18T00:08:17;41.58;;;18.42;;
21800;SDS011;11062;51.164;16.924;2023-02-18T00:10:44;45.75;;;21.70;;
21800;SDS011;11062;51.164;16.924;2023-02-18T00:13:09;44.30;;;8.93;;
21800;SDS011;11062;51.164;16.924;2023-02-18T00:15:36;35.63;;;15.20;;
21800;SDS011;11062;51.164;16.924;2023-02-18T00:18:03;109.50;;;58.45;;
21800;SDS011;11062;51.164;16.924;2023-02-18T00:20:29;45.05;;;19.00;;
21800;SDS011;11062;51.164;16.924;2023-02-18T00:22:54;43.85;;;11.23;;
21800;SDS011;11062;51.164;16.924;2023-02-18T00:25:20;43.58;;;8.52;;
21800;SDS011;11062;51.164;16.924;2023-02-18T00:27:46;26.95;;;6.60;;
21800;SDS011;11062;51.164;16.924;2023-02-18T00:30:12;44.22;;;18.92;;
21800;SDS011;11062;51.164;16.924;2023-02-18T00:32:38;69.38;;;39.72;;
21800;SDS011;11062;51.164;16.924;2023-02-18T00:35:07;90.80;;;50.75;;
21800;SDS011;11062;51.164;16.924;2023-02-18T00:37:33;47.58;;;25.33;;
21800;SDS011;11062;51.164;16.924;2023-02-18T00:39:59;40.60;;;16.38;;
21800;SDS011;11062;51.164;16.924;2023-02-18T00:42:25;43.17;;;8.23;;
21800;SDS011;11062;51.164;16.924;2023-02-18T00:44:51;36.45;;;8.93;;
21800;SDS011;11062;51.164;16.924;2023-02-18T00:47:17;26.17;;;3.42;;
21800;SDS011;11062;51.164;16.924;2023-02-18T00:49:43;30.08;;;3.78;;
21800;SDS011;11062;51.164;16.924;2023-02-18T00:52:09;32.95;;;4.03;;
21800;SDS011;11062;51.164;16.924;2023-02-18T00:54:35;29.23;;;3.55;;
21800;SDS011;11062;51.164;16.924;2023-02-18T00:57:01;20.42;;;3.00;;
21800;SDS011;11062;51.164;16.924;2023-02-18T00:59:27;27.95;;;3.50;;
21800;SDS011;11062;51.164;16.924;2023-02-18T01:01:53;24.90;;;3.30;;
21800;SDS011;11062;51.164;16.924;2023-02-18T01:04:19;33.90;;;4.10;;
21800;SDS011;11062;51.164;16.924;2023-02-18T01:06:45;34.65;;;4.53;;
21800;SDS011;11062;51.164;16.924;2023-02-18T01:09:11;33.63;;;4.53;;
21800;SDS011;11062;51.164;16.924;2023-02-18T01:11:37;27.70;;;3.75;;
21800;SDS011;11062;51.164;16.924;2023-02-18T01:14:03;30.23;;;3.67;;
21800;SDS011;11062;51.164;16.924;2023-02-18T01:16:29;31.80;;;4.35;;
21800;SDS011;11062;51.164;16.924;2023-02-18T01:18:55;39.72;;;4.53;;
21800;SDS011;11062;51.164;16.924;2023-02-18T01:21:21;37.65;;;4.43;;
21800;SDS011;11062;51.164;16.924;2023-02-18T01:23:48;18.52;;;2.17;;
21800;SDS011;11062;51.164;16.924;2023-02-18T01:26:22;28.27;;;2.65;;
21800;SDS011;11062;51.164;16.924;2023-02-18T01:28:49;39.00;;;4.32;;
21800;SDS011;11062;51.164;16.924;2023-02-18T01:31:15;28.38;;;3.13;;
21800;SDS011;11062;51.164;16.924;2023-02-18T01:33:41;18.75;;;2.22;;
21800;SDS011;11062;51.164;16.924;2023-02-18T01:36:08;18.90;;;2.40;;
21800;SDS011;11062;51.164;16.924;2023-02-18T01:38:35;20.50;;;2.42;;
21800;SDS011;11062;51.164;16.924;2023-02-18T01:41:02;30.80;;;3.58;;
21800;SDS011;11062;51.164;16.924;2023-02-18T01:43:33;15.60;;;2.28;;
21800;SDS011;11062;51.164;16.924;2023-02-18T01:46:05;7.05;;;1.42;;
21800;SDS011;11062;51.164;16.924;2023-02-18T01:48:40;17.23;;;1.92;;
21800;SDS011;11062;51.164;16.924;2023-02-18T01:51:12;27.17;;;3.40;;
21800;SDS011;11062;51.164;16.924;2023-02-18T01:56:37;26.52;;;3.28;;
21800;SDS011;11062;51.164;16.924;2023-02-18T01:59:24;48.37;;;4.97;;
21800;SDS011;11062;51.164;16.924;2023-02-18T02:02:14;32.85;;;3.78;;
21800;SDS011;11062;51.164;16.924;2023-02-18T02:04:44;26.80;;;3.03;;
21800;SDS011;11062;51.164;16.924;2023-02-18T02:07:10;30.20;;;3.88;;
21800;SDS011;11062;51.164;16.924;2023-02-18T02:09:38;17.08;;;2.17;;
21800;SDS011;11062;51.164;16.924;2023-02-18T02:12:40;29.83;;;3.28;;
21800;SDS011;11062;51.164;16.924;2023-02-18T02:44:46;26.65;;;3.72;;
21800;SDS011;11062;51.164;16.924;2023-02-18T02:47:42;28.30;;;3.47;;
21800;SDS011;11062;51.164;16.924;2023-02-18T02:50:44;24.10;;;3.13;;
21800;SDS011;11062;51.164;16.924;2023-02-18T02:54:23;28.30;;;3.47;;
21800;SDS011;11062;51.164;16.924;2023-02-18T02:57:50;38.72;;;4.05;;
21800;SDS011;11062;51.164;16.924;2023-02-18T03:00:47;25.80;;;3.22;;
21800;SDS011;11062;51.164;16.924;2023-02-18T03:07:07;34.20;;;3.70;;
21800;SDS011;11062;51.164;16.924;2023-02-18T03:12:47;24.88;;;2.88;;
21800;SDS011;11062;51.164;16.924;2023-02-18T03:18:40;23.42;;;2.85;;
21800;SDS011;11062;51.164;16.924;2023-02-18T03:21:19;26.05;;;3.03;;
21800;SDS011;11062;51.164;16.924;2023-02-18T03:24:21;51.22;;;5.40;;
21800;SDS011;11062;51.164;16.924;2023-02-18T03:26:55;24.77;;;3.03;;
21800;SDS011;11062;51.164;16.924;2023-02-18T03:29:36;62.28;;;6.38;;
21800;SDS011;11062;51.164;16.924;2023-02-18T03:32:04;22.80;;;2.75;;
21800;SDS011;11062;51.164;16.924;2023-02-18T03:34:34;37.10;;;3.97;;
21800;SDS011;11062;51.164;16.924;2023-02-18T03:37:05;28.98;;;3.42;;
21800;SDS011;11062;51.164;16.924;2023-02-18T03:39:34;33.90;;;3.88;;
21800;SDS011;11062;51.164;16.924;2023-02-18T03:42:01;17.40;;;2.47;;
21800;SDS011;11062;51.164;16.924;2023-02-18T03:44:34;26.05;;;3.13;;
21800;SDS011;11062;51.164;16.924;2023-02-18T03:47:48;28.20;;;3.50;;
21800;SDS011;11062;51.164;16.924;2023-02-18T03:51:19;18.15;;;2.25;;
21800;SDS011;11062;51.164;16.924;2023-02-18T03:54:19;21.90;;;2.90;;
21800;SDS011;11062;51.164;16.924;2023-02-18T03:56:50;52.78;;;5.57;;
21800;SDS011;11062;51.164;16.924;2023-02-18T03:59:16;24.85;;;2.85;;
21800;SDS011;11062;51.164;16.924;2023-02-18T04:01:43;22.08;;;2.97;;
21800;SDS011;11062;51.164;16.924;2023-02-18T04:04:09;31.55;;;3.63;;
21800;SDS011;11062;51.164;16.924;2023-02-18T04:06:37;32.90;;;4.07;;
21800;SDS011;11062;51.164;16.924;2023-02-18T04:09:13;41.50;;;4.65;;
21800;SDS011;11062;51.164;16.924;2023-02-18T04:11:45;21.25;;;2.88;;
21800;SDS011;11062;51.164;16.924;2023-02-18T04:14:13;22.17;;;2.78;;
21800;SDS011;11062;51.164;16.924;2023-02-18T04:16:40;28.63;;;3.35;;
21800;SDS011;11062;51.164;16.924;2023-02-18T04:19:06;40.85;;;4.47;;
21800;SDS011;11062;51.164;16.924;2023-02-18T04:21:32;30.05;;;3.33;;
21800;SDS011;11062;51.164;16.924;2023-02-18T04:23:59;28.02;;;3.28;;
21800;SDS011;11062;51.164;16.924;2023-02-18T04:26:25;35.00;;;4.07;;
21800;SDS011;11062;51.164;16.924;2023-02-18T04:28:51;26.70;;;3.35;;
21800;SDS011;11062;51.164;16.924;2023-02-18T04:31:17;41.58;;;4.72;;
21800;SDS011;11062;51.164;16.924;2023-02-18T04:33:43;31.65;;;3.67;;
21800;SDS011;11062;51.164;16.924;2023-02-18T04:36:09;26.40;;;3.45;;
21800;SDS011;11062;51.164;16.924;2023-02-18T04:38:35;30.02;;;3.80;;
21800;SDS011;11062;51.164;16.924;2023-02-18T04:41:01;18.67;;;2.85;;
21800;SDS011;11062;51.164;16.924;2023-02-18T04:43:26;44.00;;;4.95;;
21800;SDS011;11062;51.164;16.924;2023-02-18T04:45:52;26.45;;;3.33;;
21800;SDS011;11062;51.164;16.924;2023-02-18T04:48:18;25.48;;;2.70;;
21800;SDS011;11062;51.164;16.924;2023-02-18T04:50:44;34.40;;;4.07;;
21800;SDS011;11062;51.164;16.924;2023-02-18T04:53:10;25.23;;;3.20;;
21800;SDS011;11062;51.164;16.924;2023-02-18T04:55:36;37.80;;;4.43;;
21800;SDS011;11062;51.164;16.924;2023-02-18T04:58:02;47.08;;;5.18;;
21800;SDS011;11062;51.164;16.924;2023-02-18T05:00:28;27.52;;;3.28;;
21800;SDS011;11062;51.164;16.924;2023-02-18T05:02:54;28.75;;;3.47;;
21800;SDS011;11062;51.164;16.924;2023-02-18T05:05:20;29.27;;;3.47;;
21800;SDS011;11062;51.164;16.924;2023-02-18T05:07:46;50.63;;;5.75;;
21800;SDS011;11062;51.164;16.924;2023-02-18T05:10:14;35.65;;;3.95;;
21800;SDS011;11062;51.164;16.924;2023-02-18T05:12:42;34.25;;;3.83;;
21800;SDS011;11062;51.164;16.924;2023-02-18T05:15:08;28.20;;;3.35;;
21800;SDS011;11062;51.164;16.924;2023-02-18T05:17:34;31.48;;;3.80;;
21800;SDS011;11062;51.164;16.924;2023-02-18T05:20:00;47.05;;;5.10;;
21800;SDS011;11062;51.164;16.924;2023-02-18T05:22:26;25.90;;;3.33;;
21800;SDS011;11062;51.164;16.924;2023-02-18T05:24:52;27.10;;;3.10;;
21800;SDS011;11062;51.164;16.924;2023-02-18T05:27:18;30.55;;;3.92;;
21800;SDS011;11062;51.164;16.924;2023-02-18T05:29:43;28.25;;;3.67;;
21800;SDS011;11062;51.164;16.924;2023-02-18T05:32:09;34.40;;;4.07;;
21800;SDS011;11062;51.164;16.924;2023-02-18T05:34:35;32.50;;;3.65;;
21800;SDS011;11062;51.164;16.924;2023-02-18T05:37:01;26.27;;;3.03;;
21800;SDS011;11062;51.164;16.924;2023-02-18T05:39:27;26.20;;;3.25;;
21800;SDS011;11062;51.164;16.924;2023-02-18T05:41:53;28.83;;;3.42;;
21800;SDS011;11062;51.164;16.924;2023-02-18T05:44:19;45.83;;;5.13;;
21800;SDS011;11062;51.164;16.924;2023-02-18T05:46:54;34.08;;;3.92;;
21800;SDS011;11062;51.164;16.924;2023-02-18T05:49:25;41.88;;;4.43;;
21800;SDS011;11062;51.164;16.924;2023-02-18T05:51:51;24.63;;;3.22;;
21800;SDS011;11062;51.164;16.924;2023-02-18T05:54:17;34.40;;;4.22;;
21800;SDS011;11062;51.164;16.924;2023-02-18T05:56:43;27.85;;;3.40;;
21800;SDS011;11062;51.164;16.924;2023-02-18T05:59:09;27.95;;;3.40;;
21800;SDS011;11062;51.164;16.924;2023-02-18T06:01:35;35.08;;;3.97;;
21800;SDS011;11062;51.164;16.924;2023-02-18T06:04:00;27.73;;;3.28;;
21800;SDS011;11062;51.164;16.924;2023-02-18T06:06:26;21.40;;;2.85;;
21800;SDS011;11062;51.164;16.924;2023-02-18T06:08:52;27.92;;;3.42;;
21800;SDS011;11062;51.164;16.924;2023-02-18T06:11:18;25.70;;;3.28;;
21800;SDS011;11062;51.164;16.924;2023-02-18T06:13:44;32.47;;;3.83;;
21800;SDS011;11062;51.164;16.924;2023-02-18T06:16:10;29.20;;;3.53;;
21800;SDS011;11062;51.164;16.924;2023-02-18T06:18:36;33.70;;;3.70;;
21800;SDS011;11062;51.164;16.924;2023-02-18T06:21:02;26.02;;;3.15;;
21800;SDS011;11062;51.164;16.924;2023-02-18T06:23:28;45.53;;;4.95;;
21800;SDS011;11062;51.164;16.924;2023-02-18T06:25:54;24.08;;;3.03;;
21800;SDS011;11062;51.164;16.924;2023-02-18T06:28:21;16.92;;;2.35;;
21800;SDS011;11062;51.164;16.924;2023-02-18T06:30:50;31.38;;;3.70;;
21800;SDS011;11062;51.164;16.924;2023-02-18T06:33:16;24.92;;;3.28;;
21800;SDS011;11062;51.164;16.924;2023-02-18T06:35:48;43.17;;;4.70;;
21800;SDS011;11062;51.164;16.924;2023-02-18T06:38:18;31.77;;;3.58;;
21800;SDS011;11062;51.164;16.924;2023-02-18T06:40:45;28.55;;;3.47;;
21800;SDS011;11062;51.164;16.924;2023-02-18T06:43:12;36.28;;;3.78;;
21800;SDS011;11062;51.164;16.924;2023-02-18T06:45:38;25.40;;;3.30;;
21800;SDS011;11062;51.164;16.924;2023-02-18T06:48:04;36.25;;;4.40;;
21800;SDS011;11062;51.164;16.924;2023-02-18T06:50:30;28.25;;;3.60;;
21800;SDS011;11062;51.164;16.924;2023-02-18T06:52:56;24.92;;;3.13;;
21800;SDS011;11062;51.164;16.924;2023-02-18T06:55:23;40.75;;;4.70;;
21800;SDS011;11062;51.164;16.924;2023-02-18T06:57:49;58.13;;;5.78;;
21800;SDS011;11062;51.164;16.924;2023-02-18T07:00:16;28.17;;;3.53;;
21800;SDS011;11062;51.164;16.924;2023-02-18T07:02:42;28.13;;;3.45;;
21800;SDS011;11062;51.164;16.924;2023-02-18T07:05:08;44.20;;;4.93;;
21800;SDS011;11062;51.164;16.924;2023-02-18T07:07:34;39.40;;;4.65;;
21800;SDS011;11062;51.164;16.924;2023-02-18T07:10:00;26.30;;;3.30;;
21800;SDS011;11062;51.164;16.924;2023-02-18T07:12:26;31.50;;;3.75;;
21800;SDS011;11062;51.164;16.924;2023-02-18T07:14:52;30.88;;;3.80;;
21800;SDS011;11062;51.164;16.924;2023-02-18T07:17:18;47.40;;;5.32;;
21800;SDS011;11062;51.164;16.924;2023-02-18T07:19:44;46.13;;;5.10;;
21800;SDS011;11062;51.164;16.924;2023-02-18T07:22:13;37.83;;;4.47;;
21800;SDS011;11062;51.164;16.924;2023-02-18T07:24:39;48.47;;;5.55;;
21800;SDS011;11062;51.164;16.924;2023-02-18T07:27:05;30.05;;;3.80;;
21800;SDS011;11062;51.164;16.924;2023-02-18T07:29:37;33.80;;;4.32;;
21800;SDS011;11062;51.164;16.924;2023-02-18T07:32:06;78.18;;;8.18;;
21800;SDS011;11062;51.164;16.924;2023-02-18T07:34:39;38.20;;;4.63;;
21800;SDS011;11062;51.164;16.924;2023-02-18T07:37:08;30.83;;;3.83;;
21800;SDS011;11062;51.164;16.924;2023-02-18T07:39:40;57.58;;;6.43;;
21800;SDS011;11062;51.164;16.924;2023-02-18T07:42:09;38.13;;;4.70;;
21800;SDS011;11062;51.164;16.924;2023-02-18T07:44:36;45.30;;;5.30;;
21800;SDS011;11062;51.164;16.924;2023-02-18T07:47:03;56.13;;;6.03;;
21800;SDS011;11062;51.164;16.924;2023-02-18T07:49:30;45.78;;;5.20;;
21800;SDS011;11062;51.164;16.924;2023-02-18T07:51:57;18.35;;;2.65;;
21800;SDS011;11062;51.164;16.924;2023-02-18T07:57:01;58.10;;;6.35;;
21800;SDS011;11062;51.164;16.924;2023-02-18T07:59:28;42.90;;;5.00;;
21800;SDS011;11062;51.164;16.924;2023-02-18T08:01:54;34.65;;;4.38;;
21800;SDS011;11062;51.164;16.924;2023-02-18T08:04:23;345.35;;;146.52;;
21800;SDS011;11062;51.164;16.924;2023-02-18T08:06:49;345.88;;;126.40;;
21800;SDS011;11062;51.164;16.924;2023-02-18T08:09:16;369.70;;;130.98;;
21800;SDS011;11062;51.164;16.924;2023-02-18T08:11:42;315.30;;;106.63;;
21800;SDS011;11062;51.164;16.924;2023-02-18T08:14:09;291.65;;;98.97;;
21800;SDS011;11062;51.164;16.924;2023-02-18T08:16:35;296.48;;;104.72;;
21800;SDS011;11062;51.164;16.924;2023-02-18T08:19:01;293.30;;;104.13;;
21800;SDS011;11062;51.164;16.924;2023-02-18T08:21:28;283.27;;;95.50;;
21800;SDS011;11062;51.164;16.924;2023-02-18T08:23:56;275.58;;;95.15;;
21800;SDS011;11062;51.164;16.924;2023-02-18T08:26:26;274.17;;;95.47;;
21800;SDS011;11062;51.164;16.924;2023-02-18T08:28:52;280.15;;;94.07;;
21800;SDS011;11062;51.164;16.924;2023-02-18T08:31:19;261.95;;;91.90;;
21800;SDS011;11062;51.164;16.924;2023-02-18T08:33:53;267.60;;;90.35;;
21800;SDS011;11062;51.164;16.924;2023-02-18T08:36:21;264.70;;;94.55;;
21800;SDS011;11062;51.164;16.924;2023-02-18T08:38:47;278.67;;;95.60;;
21800;SDS011;11062;51.164;16.924;2023-02-18T08:41:13;276.30;;;96.18;;
21800;SDS011;11062;51.164;16.924;2023-02-18T08:43:40;293.90;;;100.93;;
21800;SDS011;11062;51.164;16.924;2023-02-18T08:46:06;277.02;;;100.05;;
21800;SDS011;11062;51.164;16.924;2023-02-18T08:48:32;277.95;;;101.63;;
21800;SDS011;11062;51.164;16.924;2023-02-18T08:50:58;269.73;;;95.22;;
21800;SDS011;11062;51.164;16.924;2023-02-18T08:53:24;278.02;;;95.65;;
21800;SDS011;11062;51.164;16.924;2023-02-18T08:55:50;278.50;;;95.95;;
21800;SDS011;11062;51.164;16.924;2023-02-18T08:58:19;275.80;;;96.45;;
21800;SDS011;11062;51.164;16.924;2023-02-18T09:00:45;255.65;;;94.28;;
21800;SDS011;11062;51.164;16.924;2023-02-18T09:03:12;243.18;;;93.13;;
21800;SDS011;11062;51.164;16.924;2023-02-18T09:06:05;336.33;;;234.85;;
21800;SDS011;11062;51.164;16.924;2023-02-18T09:08:31;345.20;;;273.17;;
21800;SDS011;11062;51.164;16.924;2023-02-18T09:11:03;383.75;;;267.75;;
21800;SDS011;11062;51.164;16.924;2023-02-18T09:19:51;237.93;;;88.18;;
21800;SDS011;11062;51.164;16.924;2023-02-18T09:22:53;255.93;;;93.28;;
21800;SDS011;11062;51.164;16.924;2023-02-18T09:25:34;244.13;;;91.68;;
21800;SDS011;11062;51.164;16.924;2023-02-18T09:28:07;265.15;;;131.10;;
21800;SDS011;11062;51.164;16.924;2023-02-18T09:30:33;285.52;;;139.25;;
21800;SDS011;11062;51.164;16.924;2023-02-18T09:36:01;240.70;;;90.55;;
21800;SDS011;11062;51.164;16.924;2023-02-18T09:38:31;242.70;;;92.22;;
21800;SDS011;11062;51.164;16.924;2023-02-18T09:40:58;220.45;;;85.72;;
21800;SDS011;11062;51.164;16.924;2023-02-18T09:45:58;245.55;;;89.28;;
21800;SDS011;11062;51.164;16.924;2023-02-18T09:48:33;303.20;;;94.47;;
21800;SDS011;11062;51.164;16.924;2023-02-18T09:51:09;248.90;;;92.05;;
21800;SDS011;11062;51.164;16.924;2023-02-18T09:53:41;241.65;;;88.13;;
21800;SDS011;11062;51.164;16.924;2023-02-18T09:56:14;229.32;;;89.18;;
21800;SDS011;11062;51.164;16.924;2023-02-18T09:59:01;391.40;;;105.45;;
21800;SDS011;11062;51.164;16.924;2023-02-18T10:01:37;304.17;;;92.55;;
21800;SDS011;11062;51.164;16.924;2023-02-18T10:04:09;244.02;;;91.95;;
21800;SDS011;11062;51.164;16.924;2023-02-18T10:06:48;232.93;;;89.47;;
21800;SDS011;11062;51.164;16.924;2023-02-18T10:09:19;241.88;;;95.63;;
21800;SDS011;11062;51.164;16.924;2023-02-18T10:12:12;214.32;;;86.68;;
21800;SDS011;11062;51.164;16.924;2023-02-18T10:14:51;215.68;;;84.78;;
21800;SDS011;11062;51.164;16.924;2023-02-18T10:17:26;194.57;;;84.15;;
21800;SDS011;11062;51.164;16.924;2023-02-18T10:19:55;194.00;;;82.28;;
21800;SDS011;11062;51.164;16.924;2023-02-18T10:22:25;203.02;;;84.72;;
21800;SDS011;11062;51.164;16.924;2023-02-18T10:24:59;202.73;;;83.47;;
21800;SDS011;11062;51.164;16.924;2023-02-18T10:27:32;203.70;;;79.10;;
21800;SDS011;11062;51.164;16.924;2023-02-18T10:30:15;226.82;;;87.97;;
21800;SDS011;11062;51.164;16.924;2023-02-18T10:32:58;246.20;;;102.18;;
21800;SDS011;11062;51.164;16.924;2023-02-18T10:44:09;201.07;;;82.32;;
21800;SDS011;11062;51.164;16.924;2023-02-18T10:46:59;196.43;;;82.28;;
21800;SDS011;11062;51.164;16.924;2023-02-18T10:52:19;95.40;;;58.60;;
21800;SDS011;11062;51.164;16.924;2023-02-18T10:55:01;86.40;;;51.97;;
21800;SDS011;11062;51.164;16.924;2023-02-18T10:57:51;95.70;;;55.17;;
21800;SDS011;11062;51.164;16.924;2023-02-18T11:00:26;60.05;;;34.92;;
21800;SDS011;11062;51.164;16.924;2023-02-18T11:03:15;82.20;;;50.15;;
21800;SDS011;11062;51.164;16.924;2023-02-18T11:05:41;113.28;;;62.90;;
21800;SDS011;11062;51.164;16.924;2023-02-18T11:08:23;159.00;;;71.13;;
21800;SDS011;11062;51.164;16.924;2023-02-18T11:10:52;116.15;;;61.70;;
21800;SDS011;11062;51.164;16.924;2023-02-18T11:13:25;180.82;;;80.43;;
21800;SDS011;11062;51.164;16.924;2023-02-18T11:16:04;178.88;;;77.80;;
21800;SDS011;11062;51.164;16.924;2023-02-18T11:18:40;156.38;;;72.90;;
21800;SDS011;11062;51.164;16.924;2023-02-18T11:21:30;188.40;;;83.85;;
21800;SDS011;11062;51.164;16.924;2023-02-18T11:24:16;164.00;;;78.32;;
21800;SDS011;11062;51.164;16.924;2023-02-18T11:26:45;211.77;;;97.63;;
21800;SDS011;11062;51.164;16.924;2023-02-18T11:29:18;162.00;;;77.63;;
21800;SDS011;11062;51.164;16.924;2023-02-18T11:31:48;171.20;;;79.90;;
21800;SDS011;11062;51.164;16.924;2023-02-18T11:34:17;199.07;;;129.30;;
21800;SDS011;11062;51.164;16.924;2023-02-18T11:36:47;124.30;;;67.28;;
21800;SDS011;11062;51.164;16.924;2023-02-18T11:41:56;49.88;;;31.40;;
21800;SDS011;11062;51.164;16.924;2023-02-18T11:44:39;22.30;;;12.43;;
21800;SDS011;11062;51.164;16.924;2023-02-18T11:49:38;30.98;;;15.52;;
21800;SDS011;11062;51.164;16.924;2023-02-18T11:52:16;28.20;;;5.28;;
21800;SDS011;11062;51.164;16.924;2023-02-18T11:57:26;28.45;;;12.50;;
21800;SDS011;11062;51.164;16.924;2023-02-18T11:59:52;27.88;;;8.57;;
21800;SDS011;11062;51.164;16.924;2023-02-18T12:07:50;26.73;;;5.78;;
21800;SDS011;11062;51.164;16.924;2023-02-18T12:10:32;61.13;;;34.15;;
21800;SDS011;11062;51.164;16.924;2023-02-18T12:15:45;52.75;;;24.73;;
21800;SDS011;11062;51.164;16.924;2023-02-18T12:18:26;58.40;;;39.08;;
21800;SDS011;11062;51.164;16.924;2023-02-18T12:21:42;98.95;;;41.53;;
21800;SDS011;11062;51.164;16.924;2023-02-18T12:24:28;50.20;;;20.10;;
21800;SDS011;11062;51.164;16.924;2023-02-18T12:30:25;144.02;;;116.20;;
21800;SDS011;11062;51.164;16.924;2023-02-18T12:33:03;73.20;;;64.85;;
21800;SDS011;11062;51.164;16.924;2023-02-18T12:39:09;135.50;;;56.33;;
21800;SDS011;11062;51.164;16.924;2023-02-18T12:44:40;116.65;;;84.72;;
21800;SDS011;11062;51.164;16.924;2023-02-18T12:47:30;117.47;;;52.60;;
21800;SDS011;11062;51.164;16.924;2023-02-18T12:56:46;49.33;;;28.92;;
21800;SDS011;11062;51.164;16.924;2023-02-18T13:21:26;163.88;;;63.53;;
21800;SDS011;11062;51.164;16.924;2023-02-18T13:24:09;199.27;;;91.55;;
21800;SDS011;11062;51.164;16.924;2023-02-18T13:37:09;123.55;;;70.40;;
21800;SDS011;11062;51.164;16.924;2023-02-18T13:39:57;133.82;;;70.95;;
21800;SDS011;11062;51.164;16.924;2023-02-18T13:45:01;61.92;;;34.70;;
21800;SDS011;11062;51.164;16.924;2023-02-18T13:50:29;92.63;;;47.13;;
21800;SDS011;11062;51.164;16.924;2023-02-18T13:58:10;144.30;;;69.30;;
21800;SDS011;11062;51.164;16.924;2023-02-18T14:00:44;139.30;;;74.78;;
21800;SDS011;11062;51.164;16.924;2023-02-18T14:03:31;142.15;;;67.40;;
21800;SDS011;11062;51.164;16.924;2023-02-18T14:06:00;144.18;;;66.22;;
21800;SDS011;11062;51.164;16.924;2023-02-18T14:08:36;136.07;;;61.28;;
21800;SDS011;11062;51.164;16.924;2023-02-18T14:16:06;151.48;;;73.97;;
21800;SDS011;11062;51.164;16.924;2023-02-18T14:18:53;210.50;;;90.65;;
21800;SDS011;11062;51.164;16.924;2023-02-18T14:21:22;254.60;;;97.05;;
21800;SDS011;11062;51.164;16.924;2023-02-18T14:24:05;181.60;;;80.68;;
21800;SDS011;11062;51.164;16.924;2023-02-18T14:26:38;141.63;;;64.63;;
21800;SDS011;11062;51.164;16.924;2023-02-18T14:37:50;155.98;;;80.10;;
21800;SDS011;11062;51.164;16.924;2023-02-18T14:52:04;150.48;;;81.72;;
21800;SDS011;11062;51.164;16.924;2023-02-18T14:55:04;254.20;;;151.32;;
21800;SDS011;11062;51.164;16.924;2023-02-18T14:57:51;243.63;;;130.40;;
21800;SDS011;11062;51.164;16.924;2023-02-18T15:04:22;161.45;;;73.38;;
21800;SDS011;11062;51.164;16.924;2023-02-18T15:06:58;140.80;;;75.05;;
21800;SDS011;11062;51.164;16.924;2023-02-18T15:09:26;87.82;;;59.13;;
21800;SDS011;11062;51.164;16.924;2023-02-18T15:14:44;120.50;;;66.70;;
21800;SDS011;11062;51.164;16.924;2023-02-18T15:17:25;91.07;;;60.42;;
21800;SDS011;11062;51.164;16.924;2023-02-18T15:20:10;210.57;;;87.82;;
21800;SDS011;11062;51.164;16.924;2023-02-18T15:22:45;235.27;;;89.78;;
21800;SDS011;11062;51.164;16.924;2023-02-18T15:25:29;224.13;;;89.13;;
21800;SDS011;11062;51.164;16.924;2023-02-18T15:31:03;240.60;;;90.85;;
21800;SDS011;11062;51.164;16.924;2023-02-18T15:33:35;238.63;;;90.90;;
21800;SDS011;11062;51.164;16.924;2023-02-18T15:36:02;246.70;;;90.97;;
21800;SDS011;11062;51.164;16.924;2023-02-18T15:44:55;246.32;;;90.00;;
21800;SDS011;11062;51.164;16.924;2023-02-18T15:47:43;236.02;;;89.75;;
21800;SDS011;11062;51.164;16.924;2023-02-18T15:50:21;240.90;;;91.25;;
21800;SDS011;11062;51.164;16.924;2023-02-18T15:52:54;234.57;;;91.05;;
21800;SDS011;11062;51.164;16.924;2023-02-18T15:55:29;235.68;;;90.70;;
21800;SDS011;11062;51.164;16.924;2023-02-18T15:58:01;241.63;;;91.85;;
21800;SDS011;11062;51.164;16.924;2023-02-18T16:04:53;232.98;;;90.07;;
21800;SDS011;11062;51.164;16.924;2023-02-18T16:10:56;231.20;;;90.30;;
21800;SDS011;11062;51.164;16.924;2023-02-18T16:13:32;240.48;;;93.82;;
21800;SDS011;11062;51.164;16.924;2023-02-18T16:16:17;255.35;;;94.70;;
21800;SDS011;11062;51.164;16.924;2023-02-18T16:19:20;236.73;;;90.78;;
21800;SDS011;11062;51.164;16.924;2023-02-18T16:31:58;176.13;;;77.07;;
21800;SDS011;11062;51.164;16.924;2023-02-18T16:34:26;180.85;;;83.45;;
21800;SDS011;11062;51.164;16.924;2023-02-18T16:36:58;240.52;;;92.22;;
21800;SDS011;11062;51.164;16.924;2023-02-18T16:39:43;57.55;;;29.20;;
21800;SDS011;11062;51.164;16.924;2023-02-18T16:42:09;193.27;;;106.53;;
21800;SDS011;11062;51.164;16.924;2023-02-18T16:44:36;143.85;;;128.75;;
21800;SDS011;11062;51.164;16.924;2023-02-18T16:50:59;76.17;;;51.87;;
21800;SDS011;11062;51.164;16.924;2023-02-18T16:53:56;227.68;;;87.68;;
21800;SDS011;11062;51.164;16.924;2023-02-18T16:56:23;214.07;;;88.68;;
21800;SDS011;11062;51.164;16.924;2023-02-18T16:58:51;272.35;;;100.82;;
21800;SDS011;11062;51.164;16.924;2023-02-18T17:01:31;248.38;;;94.20;;
21800;SDS011;11062;51.164;16.924;2023-02-18T17:04:04;237.88;;;88.70;;
21800;SDS011;11062;51.164;16.924;2023-02-18T17:06:37;226.95;;;87.57;;
21800;SDS011;11062;51.164;16.924;2023-02-18T17:11:44;1.30;;;0.90;;
21800;SDS011;11062;51.164;16.924;2023-02-18T17:14:13;153.18;;;78.43;;
21800;SDS011;11062;51.164;16.924;2023-02-18T17:16:45;110.50;;;63.80;;
21800;SDS011;11062;51.164;16.924;2023-02-18T17:19:12;177.95;;;84.00;;
21800;SDS011;11062;51.164;16.924;2023-02-18T17:21:38;245.55;;;93.05;;
21800;SDS011;11062;51.164;16.924;2023-02-18T17:24:04;237.63;;;91.80;;
21800;SDS011;11062;51.164;16.924;2023-02-18T17:26:30;235.57;;;89.88;;
21800;SDS011;11062;51.164;16.924;2023-02-18T17:28:58;254.45;;;94.30;;
21800;SDS011;11062;51.164;16.924;2023-02-18T17:31:35;269.80;;;97.13;;
21800;SDS011;11062;51.164;16.924;2023-02-18T17:34:08;269.92;;;95.97;;
21800;SDS011;11062;51.164;16.924;2023-02-18T17:36:46;274.00;;;97.22;;
21800;SDS011;11062;51.164;16.924;2023-02-18T17:39:13;258.77;;;90.28;;
21800;SDS011;11062;51.164;16.924;2023-02-18T17:41:41;281.88;;;96.15;;
21800;SDS011;11062;51.164;16.924;2023-02-18T17:44:17;248.55;;;90.38;;
21800;SDS011;11062;51.164;16.924;2023-02-18T17:46:45;261.05;;;92.68;;
21800;SDS011;11062;51.164;16.924;2023-02-18T17:49:13;255.15;;;95.53;;
21800;SDS011;11062;51.164;16.924;2023-02-18T17:51:40;251.43;;;92.50;;
21800;SDS011;11062;51.164;16.924;2023-02-18T17:54:12;252.73;;;94.82;;
21800;SDS011;11062;51.164;16.924;2023-02-18T17:56:40;231.65;;;90.25;;
21800;SDS011;11062;51.164;16.924;2023-02-18T17:59:06;234.88;;;88.55;;
21800;SDS011;11062;51.164;16.924;2023-02-18T18:01:32;238.63;;;91.07;;
21800;SDS011;11062;51.164;16.924;2023-02-18T18:04:17;172.65;;;65.75;;
21800;SDS011;11062;51.164;16.924;2023-02-18T18:06:46;238.30;;;90.55;;